Time;durP1;ratioP1;P1;durP2;ratioP2;P2;SDS_P1;SDS_P2;PMS_P1;PMS_P2;Temp;Humidity;BMP_temperature;BMP_pressure;BME280_temperature;BME280_humidity;BME280_pressure;Samples;Min_cycle;Max_cycle;Signal;HPM_P1;HPM_P2
2022/12/17 13:08:02;;;;;;;56.95;27.90;;;;;;;;;;5096042;28;20481;-78
2022/12/17 13:13:54;;;;;;;70.63;31.00;;;;;;;;;;5087955;28;20239;-77
2022/12/17 13:16:21;;;;;;;65.20;30.30;;;;;;;;;;5078550;28;20020;-77
2022/12/17 13:18:54;;;;;;;61.45;30.77;;;;;;;;;;5095344;28;20054;-77
2022/12/17 13:21:46;;;;;;;57.13;29.00;;;;;;;;;;5095474;28;20012;-77
2022/12/17 13:24:38;;;;;;;;;;;;;;;;;;;;;
2022/12/17 13:27:23;;;;;;;57.22;30.05;;;;;;;;;;5094839;28;20024;-76
2022/12/17 13:29:49;;;;;;;58.72;29.48;;;;;;;;;;5076309;28;20520;-77
2022/12/17 13:32:20;;;;;;;54.47;28.27;;;;;;;;;;5095968;28;20028;-75
2022/12/17 13:34:56;;;;;;;63.03;29.98;;;;;;;;;;5094204;28;20067;-78
2022/12/17 13:37:43;;;;;;;59.90;30.48;;;;;;;;;;5093893;28;20385;-74
2022/12/17 13:40:18;;;;;;;67.75;32.38;;;;;;;;;;5093447;28;20047;-74
2022/12/17 13:42:45;;;;;;;62.20;30.13;;;;;;;;;;5094169;28;20035;-74
2022/12/17 13:45:15;;;;;;;57.03;28.33;;;;;;;;;;5093490;28;20035;-77
2022/12/17 13:47:41;;;;;;;59.78;30.25;;;;;;;;;;5074676;28;20494;-76
2022/12/17 13:50:21;;;;;;;53.80;28.30;;;;;;;;;;5075980;28;20061;-75
2022/12/17 13:52:47;;;;;;;65.82;31.50;;;;;;;;;;5090125;28;20117;-76
2022/12/17 13:55:21;;;;;;;71.88;32.13;;;;;;;;;;5078801;28;20430;-73
2022/12/17 13:57:50;;;;;;;65.05;29.80;;;;;;;;;;5093266;28;20028;-74
2022/12/17 14:00:21;;;;;;;64.30;31.25;;;;;;;;;;5075787;28;20103;-76
2022/12/17 14:02:47;;;;;;;57.13;27.38;;;;;;;;;;5089992;28;20032;-75
2022/12/17 14:05:36;;;;;;;55.72;29.50;;;;;;;;;;5088878;28;20431;-76
2022/12/17 14:08:02;;;;;;;57.70;29.75;;;;;;;;;;5079057;28;20494;-75
2022/12/17 14:10:29;;;;;;;56.70;29.50;;;;;;;;;;5089507;28;20028;-75
2022/12/17 14:13:12;;;;;;;55.40;28.77;;;;;;;;;;5077359;28;20028;-74
2022/12/17 14:15:40;;;;;;;60.50;29.95;;;;;;;;;;5082963;28;20048;-75
2022/12/17 14:18:10;;;;;;;62.42;30.52;;;;;;;;;;5086748;28;20016;-75
2022/12/17 14:20:39;;;;;;;54.90;28.88;;;;;;;;;;5090925;28;20024;-74
2022/12/17 14:23:14;;;;;;;55.20;27.08;;;;;;;;;;5060719;28;20020;-75
2022/12/17 14:25:47;;;;;;;58.25;29.15;;;;;;;;;;5088025;28;20028;-75
2022/12/17 14:28:19;;;;;;;58.45;29.45;;;;;;;;;;5071052;28;20025;-73
2022/12/17 14:30:45;;;;;;;51.78;27.33;;;;;;;;;;5093101;28;20038;-80
2022/12/17 14:33:24;;;;;;;56.58;28.23;;;;;;;;;;5104876;28;20059;-78
2022/12/17 14:35:57;;;;;;;55.10;27.75;;;;;;;;;;5100697;28;20265;-80
2022/12/17 14:38:26;;;;;;;48.78;27.75;;;;;;;;;;5090292;28;20050;-77
2022/12/17 14:40:53;;;;;;;48.45;25.80;;;;;;;;;;5090449;28;20052;-77
2022/12/17 14:43:27;;;;;;;50.45;25.83;;;;;;;;;;5089697;28;20088;-75
2022/12/17 14:49:01;;;;;;;53.63;26.98;;;;;;;;;;5090851;28;20030;-76
2022/12/17 14:51:29;;;;;;;45.60;24.92;;;;;;;;;;5091960;28;20038;-77
2022/12/17 14:54:12;;;;;;;53.40;27.08;;;;;;;;;;5092923;28;20103;-76
2022/12/17 14:56:39;;;;;;;51.47;25.83;;;;;;;;;;5074811;28;20047;-77
2022/12/17 14:59:05;;;;;;;51.15;24.83;;;;;;;;;;5091844;28;20024;-76
2022/12/17 15:01:31;;;;;;;43.40;23.15;;;;;;;;;;5092795;28;20073;-75
2022/12/17 15:03:58;;;;;;;53.08;25.73;;;;;;;;;;5092200;28;20032;-75
2022/12/17 15:06:29;;;;;;;48.58;25.02;;;;;;;;;;5070324;28;20397;-74
2022/12/17 15:08:55;;;;;;;41.17;23.95;;;;;;;;;;5091496;28;20085;-75
2022/12/17 15:11:25;;;;;;;40.03;22.33;;;;;;;;;;5092202;28;20547;-75
2022/12/17 15:13:51;;;;;;;44.88;23.20;;;;;;;;;;5092251;28;20127;-77
2022/12/17 15:16:19;;;;;;;44.15;22.48;;;;;;;;;;5092028;28;20054;-77
2022/12/17 15:18:48;;;;;;;47.00;23.08;;;;;;;;;;5072814;28;20016;-75
2022/12/17 15:21:15;;;;;;;49.08;23.52;;;;;;;;;;5091717;28;20107;-75
2022/12/17 15:23:42;;;;;;;37.45;20.42;;;;;;;;;;5092163;28;20047;-76
2022/12/17 15:26:09;;;;;;;45.20;22.10;;;;;;;;;;5083037;28;20042;-76
2022/12/17 15:28:35;;;;;;;43.85;23.73;;;;;;;;;;5092732;28;20537;-75
2022/12/17 15:31:01;;;;;;;41.35;21.40;;;;;;;;;;5073265;28;20020;-75
2022/12/17 15:33:30;;;;;;;43.63;21.92;;;;;;;;;;5091297;28;20047;-76
2022/12/17 15:35:58;;;;;;;44.67;23.40;;;;;;;;;;5091771;28;20052;-76
2022/12/17 15:38:24;;;;;;;43.25;22.15;;;;;;;;;;5090831;28;20478;-76
2022/12/17 15:40:51;;;;;;;46.25;23.35;;;;;;;;;;5092222;28;20012;-76
2022/12/17 15:43:19;;;;;;;52.53;24.13;;;;;;;;;;5091729;28;20037;-76
2022/12/17 15:45:47;;;;;;;52.22;24.92;;;;;;;;;;5091183;28;20027;-74
2022/12/17 15:48:22;;;;;;;51.92;25.80;;;;;;;;;;5072470;28;20055;-76
2022/12/17 15:50:48;;;;;;;60.80;28.25;;;;;;;;;;5072905;28;20568;-75
2022/12/17 15:53:14;;;;;;;53.47;28.25;;;;;;;;;;5090053;28;20020;-78
2022/12/17 15:55:40;;;;;;;51.92;27.55;;;;;;;;;;5091046;28;20020;-78
2022/12/17 15:58:10;;;;;;;56.95;27.92;;;;;;;;;;5084334;28;20017;-74
2022/12/17 16:00:36;;;;;;;61.30;28.95;;;;;;;;;;5071320;28;20500;-77
2022/12/17 16:03:04;;;;;;;55.25;28.85;;;;;;;;;;5090928;28;20058;-78
2022/12/17 16:05:31;;;;;;;52.60;27.98;;;;;;;;;;5070058;28;20040;-75
2022/12/17 16:08:00;;;;;;;56.95;28.30;;;;;;;;;;5073143;28;20051;-78
2022/12/17 16:10:26;;;;;;;58.90;29.10;;;;;;;;;;5070985;28;20625;-78
2022/12/17 16:12:52;;;;;;;63.40;28.58;;;;;;;;;;5091477;28;20052;-78
2022/12/17 16:15:19;;;;;;;59.47;28.90;;;;;;;;;;5073428;28;20520;-78
2022/12/17 16:17:45;;;;;;;57.95;29.58;;;;;;;;;;5079650;28;20024;-77
2022/12/17 16:20:11;;;;;;;54.95;27.05;;;;;;;;;;5086545;28;20094;-80
2022/12/17 16:22:37;;;;;;;60.30;29.58;;;;;;;;;;5075039;28;20435;-77
2022/12/17 16:25:03;;;;;;;59.50;29.55;;;;;;;;;;5085813;28;20398;-78
2022/12/17 16:27:29;;;;;;;60.22;30.13;;;;;;;;;;5079900;28;20059;-76
2022/12/17 16:29:55;;;;;;;67.68;29.77;;;;;;;;;;5091648;28;20035;-76
2022/12/17 16:32:21;;;;;;;65.43;30.08;;;;;;;;;;5075488;28;20012;-76
2022/12/17 16:34:47;;;;;;;58.10;28.92;;;;;;;;;;5070298;28;20490;-76
2022/12/17 16:37:13;;;;;;;57.65;28.50;;;;;;;;;;5077921;28;20047;-77
2022/12/17 16:39:40;;;;;;;59.70;29.80;;;;;;;;;;5091618;28;20028;-77
2022/12/17 16:42:06;;;;;;;60.95;30.35;;;;;;;;;;5086182;28;20410;-76
2022/12/17 16:44:32;;;;;;;58.00;28.55;;;;;;;;;;5070126;28;20044;-77
2022/12/17 16:47:00;;;;;;;64.38;30.13;;;;;;;;;;5083997;28;20028;-76
2022/12/17 16:49:26;;;;;;;60.78;29.55;;;;;;;;;;5090478;28;20494;-77
2022/12/17 16:51:53;;;;;;;61.08;30.52;;;;;;;;;;5091403;28;20024;-76
2022/12/17 16:54:20;;;;;;;66.07;30.75;;;;;;;;;;5093167;28;20035;-76
2022/12/17 16:56:47;;;;;;;62.25;30.75;;;;;;;;;;5095064;28;20101;-75
2022/12/17 16:59:13;;;;;;;61.78;29.70;;;;;;;;;;5080257;28;20456;-76
2022/12/17 17:01:40;;;;;;;65.22;31.35;;;;;;;;;;5076946;28;20063;-76
2022/12/17 17:04:07;;;;;;;63.10;30.85;;;;;;;;;;5078216;28;20033;-77
2022/12/17 17:06:37;;;;;;;62.28;30.35;;;;;;;;;;5087713;28;20052;-75
2022/12/17 17:09:04;;;;;;;59.72;29.15;;;;;;;;;;5057808;28;20055;-75
2022/12/17 17:11:30;;;;;;;63.10;30.83;;;;;;;;;;5081501;28;20379;-78
2022/12/17 17:13:56;;;;;;;61.83;30.58;;;;;;;;;;5083387;28;20028;-74
2022/12/17 17:16:23;;;;;;;66.38;31.75;;;;;;;;;;5077482;28;20029;-77
2022/12/17 17:18:50;;;;;;;61.08;31.90;;;;;;;;;;5077541;28;20465;-76
2022/12/17 17:21:18;;;;;;;63.40;30.58;;;;;;;;;;5095078;28;20129;-76
2022/12/17 17:23:47;;;;;;;59.13;29.70;;;;;;;;;;5095433;28;20398;-79
2022/12/17 17:26:13;;;;;;;62.50;29.67;;;;;;;;;;5086594;28;20028;-77
2022/12/17 17:28:39;;;;;;;58.90;30.20;;;;;;;;;;5077311;28;20028;-77
2022/12/17 17:31:07;;;;;;;63.00;30.23;;;;;;;;;;5095673;28;20028;-79
2022/12/17 17:33:35;;;;;;;64.35;30.85;;;;;;;;;;5095567;28;20028;-74
2022/12/17 17:36:08;;;;;;;61.60;29.63;;;;;;;;;;5095792;28;20103;-75
2022/12/17 17:38:38;;;;;;;68.43;31.35;;;;;;;;;;5094241;28;20028;-75
2022/12/17 17:41:04;;;;;;;62.72;32.65;;;;;;;;;;5094223;28;20020;-77
2022/12/17 17:43:30;;;;;;;69.70;33.13;;;;;;;;;;5093886;28;20521;-76
2022/12/17 17:46:05;;;;;;;63.70;31.50;;;;;;;;;;5093640;28;20042;-76
2022/12/17 17:48:34;;;;;;;61.60;32.50;;;;;;;;;;5094014;28;20433;-76
2022/12/17 17:51:03;;;;;;;62.25;31.30;;;;;;;;;;5108928;28;20024;-78
2022/12/17 17:53:29;;;;;;;70.63;32.97;;;;;;;;;;5094212;28;20063;-78
2022/12/17 17:56:01;;;;;;;64.90;32.97;;;;;;;;;;5093875;28;20024;-76
2022/12/17 17:58:27;;;;;;;68.15;33.78;;;;;;;;;;5093040;28;20032;-76
2022/12/17 18:01:01;;;;;;;68.80;31.40;;;;;;;;;;5075945;28;20097;-78
2022/12/17 18:03:36;;;;;;;68.80;33.55;;;;;;;;;;5093618;28;20056;-75
2022/12/17 18:06:03;;;;;;;66.30;32.97;;;;;;;;;;5073926;28;20028;-75
2022/12/17 18:08:30;;;;;;;65.93;31.58;;;;;;;;;;5092546;28;20107;-76
2022/12/17 18:10:59;;;;;;;69.03;32.13;;;;;;;;;;5093138;28;20024;-75
2022/12/17 18:16:11;;;;;;;67.75;32.20;;;;;;;;;;5085489;28;20449;-78
2022/12/17 18:18:37;;;;;;;69.30;31.40;;;;;;;;;;5090784;28;20539;-77
2022/12/17 18:21:04;;;;;;;67.15;32.83;;;;;;;;;;5060381;28;20069;-76
2022/12/17 18:23:30;;;;;;;70.80;33.60;;;;;;;;;;5093226;28;20534;-78
2022/12/17 18:26:03;;;;;;;70.57;33.22;;;;;;;;;;5087488;28;20035;-76
2022/12/17 18:28:29;;;;;;;75.30;34.85;;;;;;;;;;5092304;28;20024;-76
2022/12/17 18:30:55;;;;;;;78.68;36.33;;;;;;;;;;5093443;28;20024;-76
2022/12/17 18:33:21;;;;;;;79.68;34.67;;;;;;;;;;5093413;28;20038;-77
2022/12/17 18:35:47;;;;;;;69.22;33.75;;;;;;;;;;5069869;28;20052;-77
2022/12/17 18:38:13;;;;;;;73.53;34.83;;;;;;;;;;5067274;28;20056;-77
2022/12/17 18:43:21;;;;;;;71.07;32.40;;;;;;;;;;5049347;28;20406;-76
2022/12/17 18:43:53;;;;;;;73.05;34.05;;;;;;;;;;5047874;28;20045;-78
2022/12/17 18:46:19;;;;;;;75.68;34.90;;;;;;;;;;5048229;28;20025;-77
2022/12/17 18:48:45;;;;;;;77.00;36.47;;;;;;;;;;5073730;28;20040;-78
2022/12/17 18:51:12;;;;;;;79.85;35.22;;;;;;;;;;5081133;28;20036;-78
2022/12/17 18:53:38;;;;;;;80.60;38.70;;;;;;;;;;5080320;28;20092;-79
2022/12/17 18:56:08;;;;;;;83.00;37.40;;;;;;;;;;5084890;28;20025;-77
2022/12/17 18:58:34;;;;;;;75.22;37.13;;;;;;;;;;5076281;28;20033;-77
2022/12/17 19:01:00;;;;;;;76.63;37.17;;;;;;;;;;5067615;28;20020;-76
2022/12/17 19:03:26;;;;;;;78.97;36.30;;;;;;;;;;5058754;28;20025;-78
2022/12/17 19:05:53;;;;;;;83.18;40.08;;;;;;;;;;5047324;28;20033;-79
2022/12/17 19:08:19;;;;;;;84.03;40.17;;;;;;;;;;5046390;28;20112;-76
2022/12/17 19:10:45;;;;;;;78.75;37.78;;;;;;;;;;5047353;28;20383;-78
2022/12/17 19:13:11;;;;;;;80.57;37.90;;;;;;;;;;5046317;28;20163;-77
2022/12/17 19:15:40;;;;;;;91.28;43.20;;;;;;;;;;5047479;28;20059;-78
2022/12/17 19:18:06;;;;;;;94.68;44.35;;;;;;;;;;5047911;28;20029;-77
2022/12/17 19:20:32;;;;;;;97.53;45.95;;;;;;;;;;5048512;28;20036;-76
2022/12/17 19:22:58;;;;;;;96.45;46.33;;;;;;;;;;5047924;28;20018;-78
2022/12/17 19:25:24;;;;;;;95.68;46.60;;;;;;;;;;5048029;28;20025;-79
2022/12/17 19:27:50;;;;;;;92.97;45.67;;;;;;;;;;5063126;28;20017;-79
2022/12/17 19:30:16;;;;;;;96.60;45.80;;;;;;;;;;5063172;28;20033;-76
2022/12/17 19:32:42;;;;;;;92.43;44.20;;;;;;;;;;5047848;28;20036;-76
2022/12/17 19:35:09;;;;;;;87.90;44.42;;;;;;;;;;5048473;28;20463;-74
2022/12/17 19:37:40;;;;;;;89.47;42.33;;;;;;;;;;5056112;28;20132;-75
2022/12/17 19:40:06;;;;;;;91.88;42.25;;;;;;;;;;5065760;28;20030;-78
2022/12/17 19:42:32;;;;;;;89.13;43.72;;;;;;;;;;5066558;28;20051;-76
2022/12/17 19:45:08;;;;;;;91.95;45.13;;;;;;;;;;5054799;28;20029;-75
2022/12/17 19:47:34;;;;;;;100.43;46.45;;;;;;;;;;5046971;28;20021;-77
2022/12/17 19:50:03;;;;;;;93.20;42.78;;;;;;;;;;5047641;28;20087;-76
2022/12/17 19:52:29;;;;;;;91.45;43.88;;;;;;;;;;5033823;28;20558;-77
2022/12/17 19:54:55;;;;;;;77.38;39.60;;;;;;;;;;5034230;28;20026;-76
2022/12/17 19:57:21;;;;;;;85.38;41.03;;;;;;;;;;5033609;28;20033;-77
2022/12/17 19:59:47;;;;;;;84.32;39.13;;;;;;;;;;5033860;28;20045;-76
2022/12/17 20:02:15;;;;;;;87.10;40.72;;;;;;;;;;5033783;28;20031;-76
2022/12/17 20:04:42;;;;;;;83.85;38.50;;;;;;;;;;5032953;28;20033;-76
2022/12/17 20:07:08;;;;;;;76.97;38.00;;;;;;;;;;5033383;28;20536;-72
2022/12/17 20:09:34;;;;;;;82.38;38.47;;;;;;;;;;5034206;28;20022;-77
2022/12/17 20:12:03;;;;;;;83.70;38.38;;;;;;;;;;5032472;28;20037;-75
2022/12/17 20:14:30;;;;;;;96.68;41.92;;;;;;;;;;5033588;28;20511;-75
2022/12/17 20:16:57;;;;;;;88.47;42.45;;;;;;;;;;5033868;28;20037;-75
2022/12/17 20:19:30;;;;;;;88.22;40.35;;;;;;;;;;5032089;28;20033;-76
2022/12/17 20:21:57;;;;;;;81.97;40.63;;;;;;;;;;5040108;28;20028;-77
2022/12/17 20:24:23;;;;;;;91.03;41.15;;;;;;;;;;5057262;28;20055;-78
2022/12/17 20:26:50;;;;;;;99.93;45.50;;;;;;;;;;5058020;28;20108;-79
2022/12/17 20:29:17;;;;;;;98.22;46.15;;;;;;;;;;5053039;28;20060;-76
2022/12/17 20:31:43;;;;;;;110.60;46.85;;;;;;;;;;5052088;28;20030;-76
2022/12/17 20:34:11;;;;;;;100.03;44.50;;;;;;;;;;5043923;28;20491;-75
2022/12/17 20:36:39;;;;;;;100.88;42.85;;;;;;;;;;5033366;28;20540;-75
2022/12/17 20:39:05;;;;;;;101.28;44.55;;;;;;;;;;5031709;28;20033;-78
2022/12/17 20:41:32;;;;;;;94.30;43.45;;;;;;;;;;5033286;28;20017;-76
2022/12/17 20:44:08;;;;;;;102.85;44.15;;;;;;;;;;5031648;28;20052;-76
2022/12/17 20:46:39;;;;;;;96.57;45.45;;;;;;;;;;5032017;28;20022;-75
2022/12/17 20:49:06;;;;;;;88.55;41.42;;;;;;;;;;5032687;28;20337;-77
2022/12/17 20:51:35;;;;;;;89.35;42.42;;;;;;;;;;5031487;28;20025;-79
2022/12/17 20:54:01;;;;;;;84.97;41.55;;;;;;;;;;5030683;28;20036;-76
2022/12/17 20:56:30;;;;;;;98.15;45.38;;;;;;;;;;5032780;28;20040;-77
2022/12/17 20:58:58;;;;;;;89.43;41.28;;;;;;;;;;5041076;28;20482;-77
2022/12/17 21:01:27;;;;;;;88.18;41.45;;;;;;;;;;5037067;28;20025;-77
2022/12/17 21:03:54;;;;;;;96.43;41.67;;;;;;;;;;5048106;28;20029;-75
2022/12/17 21:06:23;;;;;;;87.65;41.40;;;;;;;;;;5038641;28;20149;-74
2022/12/17 21:08:50;;;;;;;86.25;38.15;;;;;;;;;;5041729;28;20028;-75
2022/12/17 21:11:20;;;;;;;85.68;39.58;;;;;;;;;;5045802;28;20033;-76
2022/12/17 21:13:46;;;;;;;83.20;38.47;;;;;;;;;;5035780;28;20108;-76
2022/12/17 21:16:13;;;;;;;96.97;44.30;;;;;;;;;;5052247;28;20029;-75
2022/12/17 21:18:42;;;;;;;101.30;42.30;;;;;;;;;;5042399;28;20032;-75
2022/12/17 21:21:13;;;;;;;85.90;40.42;;;;;;;;;;5043343;28;20364;-75
2022/12/17 21:23:40;;;;;;;97.18;42.03;;;;;;;;;;5035831;28;20444;-78
2022/12/17 21:26:11;;;;;;;86.18;40.38;;;;;;;;;;5016789;28;20029;-76
2022/12/17 21:28:38;;;;;;;89.07;39.40;;;;;;;;;;5039846;28;20017;-77
2022/12/17 21:31:26;;;;;;;88.70;40.95;;;;;;;;;;5052181;28;20075;-82
2022/12/17 21:33:53;;;;;;;90.38;40.80;;;;;;;;;;5045006;28;20040;-77
2022/12/17 21:36:20;;;;;;;74.10;37.75;;;;;;;;;;5036214;28;20479;-77
2022/12/17 21:38:46;;;;;;;81.85;37.70;;;;;;;;;;5043169;28;20071;-77
2022/12/17 21:41:14;;;;;;;78.15;37.17;;;;;;;;;;5051947;28;20497;-77
2022/12/17 21:43:40;;;;;;;79.07;36.97;;;;;;;;;;5032281;28;20028;-76
2022/12/17 21:46:07;;;;;;;81.32;38.97;;;;;;;;;;5046161;28;20018;-76
2022/12/17 21:48:34;;;;;;;82.63;38.20;;;;;;;;;;5037218;28;20025;-77
2022/12/17 21:51:00;;;;;;;75.97;36.53;;;;;;;;;;5038663;28;20395;-77
2022/12/17 21:53:26;;;;;;;68.45;34.03;;;;;;;;;;5044388;28;20029;-76
2022/12/17 21:56:02;;;;;;;85.18;38.53;;;;;;;;;;5033723;28;20028;-77
2022/12/17 21:58:28;;;;;;;81.25;36.95;;;;;;;;;;5028028;28;20025;-75
2022/12/17 22:00:54;;;;;;;73.65;35.58;;;;;;;;;;5033176;28;20064;-75
2022/12/17 22:03:20;;;;;;;72.93;35.40;;;;;;;;;;5029763;28;20049;-74
2022/12/17 22:05:46;;;;;;;77.13;35.78;;;;;;;;;;5047277;28;20052;-76
2022/12/17 22:08:15;;;;;;;84.55;37.92;;;;;;;;;;5046542;28;20059;-76
2022/12/17 22:10:42;;;;;;;72.60;33.35;;;;;;;;;;5038527;28;20051;-76
2022/12/17 22:15:53;;;;;;;73.75;34.42;;;;;;;;;;5047504;28;20146;-76
2022/12/17 22:18:19;;;;;;;67.75;31.55;;;;;;;;;;5035125;28;20017;-76
2022/12/17 22:20:55;;;;;;;71.40;31.77;;;;;;;;;;5041240;28;20018;-77
2022/12/17 22:23:21;;;;;;;71.82;33.80;;;;;;;;;;5047106;28;20024;-78
2022/12/17 22:25:49;;;;;;;74.97;34.15;;;;;;;;;;5047237;28;20025;-76
2022/12/17 22:28:18;;;;;;;69.25;31.58;;;;;;;;;;5034064;28;20059;-76
2022/12/17 22:33:34;;;;;;;61.63;32.25;;;;;;;;;;5045547;28;20040;-78
2022/12/17 22:36:03;;;;;;;63.78;30.02;;;;;;;;;;5037012;28;20060;-76
2022/12/17 22:38:34;;;;;;;75.38;34.17;;;;;;;;;;5045556;28;20033;-77
2022/12/17 22:41:06;;;;;;;64.60;32.70;;;;;;;;;;5058811;28;20037;-77
2022/12/17 22:43:38;;;;;;;68.97;33.70;;;;;;;;;;5129173;22;20485;-77
2022/12/17 22:46:20;;;;;;;63.33;30.25;;;;;;;;;;4989975;28;20047;-77
2022/12/17 22:48:46;;;;;;;73.85;33.30;;;;;;;;;;4980346;28;20045;-74
2022/12/17 22:51:44;;;;;;;68.85;31.52;;;;;;;;;;4982239;28;20011;-76
2022/12/17 22:57:15;;;;;;;61.92;28.60;;;;;;;;;;4975312;28;20544;-75
2022/12/17 22:59:44;;;;;;;64.75;29.27;;;;;;;;;;4972149;28;20034;-76
2022/12/17 23:02:10;;;;;;;65.07;30.50;;;;;;;;;;4957338;28;20054;-75
2022/12/17 23:04:36;;;;;;;61.08;29.63;;;;;;;;;;4972921;28;20046;-75
2022/12/17 23:07:03;;;;;;;66.88;29.10;;;;;;;;;;4973629;28;20077;-76
2022/12/17 23:09:29;;;;;;;58.10;28.30;;;;;;;;;;4981107;28;20023;-76
2022/12/17 23:11:55;;;;;;;64.05;29.67;;;;;;;;;;4963077;28;20027;-76
2022/12/17 23:14:21;;;;;;;60.58;28.50;;;;;;;;;;4974818;28;20114;-75
2022/12/17 23:16:47;;;;;;;63.60;28.17;;;;;;;;;;4954088;28;20027;-75
2022/12/17 23:19:13;;;;;;;57.47;30.30;;;;;;;;;;4953980;28;20031;-75
2022/12/17 23:21:42;;;;;;;57.97;27.50;;;;;;;;;;4969964;28;20023;-77
2022/12/17 23:24:08;;;;;;;59.58;27.42;;;;;;;;;;4985879;28;20019;-76
2022/12/17 23:26:35;;;;;;;55.97;27.20;;;;;;;;;;4955824;28;20031;-76
2022/12/17 23:29:03;;;;;;;56.35;25.25;;;;;;;;;;4969726;28;20509;-76
2022/12/17 23:31:31;;;;;;;56.33;26.10;;;;;;;;;;4963084;28;20027;-77
2022/12/17 23:34:00;;;;;;;55.63;26.15;;;;;;;;;;4961443;28;20036;-76
2022/12/17 23:36:26;;;;;;;53.17;27.15;;;;;;;;;;4992363;28;20477;-76
2022/12/17 23:38:53;;;;;;;57.13;28.00;;;;;;;;;;4983866;28;20038;-76
2022/12/17 23:41:23;;;;;;;60.05;29.38;;;;;;;;;;4970543;28;20046;-75
2022/12/17 23:43:49;;;;;;;43.72;21.20;;;;;;;;;;4989500;28;20034;-75
2022/12/17 23:46:17;;;;;;;55.13;24.70;;;;;;;;;;4976272;28;20488;-76
2022/12/17 23:48:52;;;;;;;47.63;25.27;;;;;;;;;;4966914;28;20020;-77
2022/12/17 23:51:19;;;;;;;57.63;29.35;;;;;;;;;;4957635;28;20430;-77
2022/12/17 23:53:46;;;;;;;54.63;26.33;;;;;;;;;;4971046;28;20035;-76
2022/12/17 23:56:13;;;;;;;52.67;23.50;;;;;;;;;;4960396;28;20027;-77
2022/12/17 23:58:42;;;;;;;50.03;24.80;;;;;;;;;;4975346;28;20046;-77
